createdAt,value
2018-06-12T00:01:32.306Z,5.55
2018-06-12T00:04:00.871Z,5.00
2018-06-12T00:06:29.412Z,4.55
2018-06-12T00:08:58.580Z,5.12
2018-06-12T00:11:27.062Z,5.47
2018-06-12T00:13:55.562Z,4.60
2018-06-12T00:16:24.999Z,4.45
2018-06-12T00:18:53.487Z,4.70
2018-06-12T00:21:21.966Z,4.78
2018-06-12T00:23:50.491Z,5.33
2018-06-12T00:26:18.970Z,4.22
2018-06-12T00:28:47.474Z,4.47
2018-06-12T00:31:16.204Z,4.78
2018-06-12T00:33:44.708Z,4.53
2018-06-12T00:36:13.199Z,4.50
2018-06-12T00:38:41.681Z,4.67
2018-06-12T00:41:10.170Z,5.28
2018-06-12T00:43:38.746Z,5.08
2018-06-12T00:46:07.270Z,4.65
2018-06-12T00:48:35.786Z,4.55
2018-06-12T00:51:04.276Z,5.58
2018-06-12T00:53:32.794Z,4.17
2018-06-12T00:56:01.276Z,4.58
2018-06-12T00:58:30.250Z,4.60
2018-06-12T01:00:58.762Z,4.65
2018-06-12T01:03:27.282Z,4.58
2018-06-12T01:05:55.770Z,4.58
2018-06-12T01:08:24.262Z,4.22
2018-06-12T01:10:52.743Z,4.67
2018-06-12T01:13:21.274Z,5.15
2018-06-12T01:15:49.770Z,4.15
2018-06-12T01:18:18.276Z,4.50
2018-06-12T01:20:46.748Z,4.47
2018-06-12T01:23:15.255Z,4.70
2018-06-12T01:25:43.726Z,4.55
2018-06-12T01:28:12.455Z,4.65
2018-06-12T01:30:40.943Z,4.40
2018-06-12T01:33:09.459Z,4.90
2018-06-12T01:35:37.944Z,5.20
2018-06-12T01:38:06.437Z,5.67
2018-06-12T01:40:34.955Z,4.60
2018-06-12T01:43:03.419Z,5.22
2018-06-12T01:45:31.911Z,5.30
2018-06-12T01:48:00.379Z,5.50
2018-06-12T01:50:28.887Z,5.20
2018-06-12T01:52:57.783Z,5.45
2018-06-12T01:55:26.290Z,6.58
2018-06-12T01:57:54.759Z,5.97
2018-06-12T02:00:23.281Z,5.97
2018-06-12T02:02:52.162Z,5.72
2018-06-12T02:05:20.666Z,5.90
2018-06-12T02:07:49.126Z,6.05
2018-06-12T02:10:17.616Z,6.50
2018-06-12T02:12:46.090Z,6.50
2018-06-12T02:15:14.600Z,6.00
2018-06-12T02:17:43.075Z,7.65
2018-06-12T02:20:11.571Z,6.62
2018-06-12T02:22:40.062Z,7.92
2018-06-12T02:25:08.586Z,7.67
2018-06-12T02:27:36.733Z,7.75
2018-06-12T02:30:05.467Z,6.58
2018-06-12T02:32:35.994Z,7.35
2018-06-12T02:35:04.878Z,8.25
2018-06-12T02:37:33.372Z,8.83
2018-06-12T02:40:01.949Z,7.95
2018-06-12T02:42:30.366Z,8.60
2018-06-12T02:44:58.867Z,8.88
2018-06-12T02:47:27.359Z,8.10
2018-06-12T02:49:55.854Z,9.25
2018-06-12T02:52:24.334Z,9.00
2018-06-12T02:54:52.831Z,8.88
2018-06-12T02:57:21.331Z,9.75
2018-06-12T02:59:49.849Z,9.85
2018-06-12T03:02:18.321Z,9.90
2018-06-12T03:04:46.826Z,9.78
2018-06-12T03:07:15.335Z,9.48
2018-06-12T03:09:43.819Z,9.08
2018-06-12T03:12:12.303Z,9.75
2018-06-12T03:14:40.804Z,10.40
2018-06-12T03:17:09.263Z,10.72
2018-06-12T03:19:37.736Z,9.85
2018-06-12T03:22:06.213Z,11.00
2018-06-12T03:24:34.726Z,9.78
2018-06-12T03:27:03.248Z,11.33
2018-06-12T03:29:31.763Z,13.08
2018-06-12T03:32:00.260Z,13.32
2018-06-12T03:34:28.892Z,12.78
2018-06-12T03:36:57.379Z,12.70
2018-06-12T03:39:25.844Z,13.85
2018-06-12T03:41:54.615Z,12.60
2018-06-12T03:44:23.126Z,13.98
2018-06-12T03:46:51.613Z,11.12
2018-06-12T03:49:20.094Z,12.37
2018-06-12T03:51:48.595Z,10.60
2018-06-12T03:54:17.106Z,11.28
2018-06-12T03:56:45.619Z,9.73
2018-06-12T03:59:14.120Z,8.83
2018-06-12T04:01:42.602Z,10.40
2018-06-12T04:04:11.122Z,10.68
2018-06-12T04:06:39.632Z,10.13
2018-06-12T04:09:08.784Z,10.10
2018-06-12T04:11:37.388Z,11.30
2018-06-12T04:14:05.906Z,10.65
2018-06-12T04:16:36.170Z,10.18
2018-06-12T04:19:06.219Z,11.60
2018-06-12T04:21:35.145Z,11.53
2018-06-12T04:24:03.723Z,11.20
2018-06-12T04:26:32.207Z,11.28
2018-06-12T04:29:00.695Z,11.50
2018-06-12T04:31:28.891Z,12.63
2018-06-12T04:33:57.387Z,11.28
2018-06-12T04:36:25.925Z,12.25
2018-06-12T04:38:54.433Z,13.03
2018-06-12T04:41:22.956Z,12.05
2018-06-12T04:43:51.448Z,11.38
2018-06-12T04:46:19.930Z,12.75
2018-06-12T04:48:48.418Z,11.78
2018-06-12T04:51:16.942Z,11.60
2018-06-12T04:53:45.428Z,12.73
2018-06-12T04:56:13.947Z,13.32
2018-06-12T04:58:42.427Z,12.37
2018-06-12T05:01:10.911Z,12.93
2018-06-12T05:03:39.366Z,14.20
2018-06-12T05:06:07.858Z,15.78
2018-06-12T05:08:36.321Z,12.45
2018-06-12T05:11:04.834Z,14.40
2018-06-12T05:13:33.306Z,15.05
2018-06-12T05:16:01.787Z,15.30
2018-06-12T05:18:30.255Z,15.53
2018-06-12T05:20:58.747Z,14.55
2018-06-12T05:23:27.227Z,16.30
2018-06-12T05:25:55.690Z,15.10
2018-06-12T05:28:24.188Z,16.20
2018-06-12T05:30:52.652Z,17.52
2018-06-12T05:33:21.145Z,16.77
2018-06-12T05:35:49.627Z,16.40
2018-06-12T05:38:18.126Z,16.80
2018-06-12T05:40:46.625Z,17.17
2018-06-12T05:43:15.197Z,18.02
2018-06-12T05:45:43.658Z,17.07
2018-06-12T05:48:12.985Z,16.62
2018-06-12T05:50:41.701Z,17.48
2018-06-12T05:53:10.434Z,16.12
2018-06-12T05:55:38.913Z,18.00
2018-06-12T05:58:07.430Z,18.50
2018-06-12T06:00:35.916Z,17.95
2018-06-12T06:03:04.426Z,18.80
2018-06-12T06:05:32.899Z,19.23
2018-06-12T06:08:01.402Z,17.90
2018-06-12T06:10:29.902Z,18.17
2018-06-12T06:12:58.507Z,16.65
2018-06-12T06:15:27.008Z,17.50
2018-06-12T06:17:55.503Z,16.30
2018-06-12T06:20:23.974Z,16.10
2018-06-12T06:22:52.486Z,13.08
2018-06-12T06:25:20.963Z,14.40
2018-06-12T06:27:49.514Z,13.98
2018-06-12T06:30:17.958Z,14.83
2018-06-12T06:32:46.122Z,13.53
2018-06-12T06:35:14.583Z,15.18
2018-06-12T06:37:43.081Z,14.13
2018-06-12T06:40:11.542Z,12.70
2018-06-12T06:42:40.027Z,10.65
2018-06-12T06:45:08.478Z,12.20
2018-06-12T06:47:36.952Z,11.12
2018-06-12T06:50:05.434Z,11.05
2018-06-12T06:52:33.940Z,11.45
2018-06-12T06:55:02.382Z,10.32
2018-06-12T06:57:30.846Z,9.78
2018-06-12T06:59:59.293Z,11.35
2018-06-12T07:02:27.798Z,10.80
2018-06-12T07:04:56.266Z,9.35
2018-06-12T07:07:24.771Z,8.58
2018-06-12T07:09:53.230Z,9.93
2018-06-12T07:12:40.291Z,6.12
2018-06-12T07:15:08.774Z,7.22
2018-06-12T07:17:37.267Z,6.40
2018-06-12T07:20:06.198Z,5.58
2018-06-12T07:22:34.786Z,6.00
2018-06-12T07:25:04.157Z,4.92
2018-06-12T07:27:32.676Z,4.75
2018-06-12T07:30:01.133Z,4.55
2018-06-12T07:32:30.371Z,4.30
2018-06-12T07:34:59.058Z,4.42
2018-06-12T07:37:28.587Z,4.50
2018-06-12T07:39:57.297Z,4.03
2018-06-12T07:42:26.284Z,4.35
2018-06-12T07:44:55.269Z,4.12
2018-06-12T07:47:23.961Z,4.37
2018-06-12T07:49:52.902Z,3.72
2018-06-12T07:52:21.892Z,4.10
2018-06-12T07:54:50.728Z,4.28
2018-06-12T07:57:19.739Z,3.98
2018-06-12T07:59:48.613Z,3.60
2018-06-12T08:02:17.303Z,3.10
2018-06-12T08:04:46.101Z,3.65
2018-06-12T08:07:14.949Z,3.75
2018-06-12T08:09:43.710Z,3.85
2018-06-12T08:12:12.479Z,3.90
2018-06-12T08:14:40.950Z,3.30
2018-06-12T08:17:10.646Z,3.10
2018-06-12T08:19:39.118Z,3.52
2018-06-12T08:22:07.590Z,3.52
2018-06-12T08:24:36.066Z,3.25
2018-06-12T08:27:04.523Z,2.60
2018-06-12T08:29:36.910Z,2.77
2018-06-12T08:32:18.413Z,3.00
2018-06-12T08:34:50.351Z,2.80
2018-06-12T08:37:19.442Z,3.37
2018-06-12T08:39:48.013Z,3.37
2018-06-12T08:42:16.624Z,3.50
2018-06-12T08:44:45.127Z,3.45
2018-06-12T08:47:16.446Z,3.42
2018-06-12T08:49:44.918Z,3.62
2018-06-12T08:52:13.389Z,4.12
2018-06-12T08:54:41.914Z,4.70
2018-06-12T08:57:10.371Z,4.47
2018-06-12T08:59:41.774Z,3.77
2018-06-12T09:02:10.276Z,3.70
2018-06-12T09:04:38.763Z,4.15
2018-06-12T09:07:07.255Z,3.50
2018-06-12T09:09:35.726Z,4.03
2018-06-12T09:12:04.375Z,3.72
2018-06-12T09:14:33.009Z,3.80
2018-06-12T09:17:01.823Z,3.72
2018-06-12T09:19:30.425Z,3.77
2018-06-12T09:21:58.596Z,4.08
2018-06-12T09:24:27.200Z,5.25
2018-06-12T09:26:55.714Z,5.65
2018-06-12T09:29:24.218Z,5.37
2018-06-12T09:31:52.674Z,5.75
2018-06-12T09:34:21.155Z,6.22
2018-06-12T09:36:50.139Z,5.80
2018-06-12T09:39:18.693Z,5.08
2018-06-12T09:41:47.174Z,4.70
2018-06-12T09:44:15.671Z,5.33
2018-06-12T09:46:44.162Z,4.30
2018-06-12T09:49:12.695Z,4.75
2018-06-12T09:51:41.207Z,4.53
2018-06-12T09:54:09.734Z,5.17
2018-06-12T09:56:38.377Z,4.60
2018-06-12T09:59:07.018Z,5.17
2018-06-12T10:01:35.711Z,5.55
2018-06-12T10:04:04.023Z,5.20
2018-06-12T10:06:32.510Z,5.25
2018-06-12T10:09:00.970Z,4.30
2018-06-12T10:11:29.466Z,4.78
2018-06-12T10:13:57.946Z,4.70
2018-06-12T10:16:26.458Z,4.40
2018-06-12T10:18:55.045Z,3.95
2018-06-12T10:21:23.555Z,4.03
2018-06-12T10:23:52.038Z,3.35
2018-06-12T10:26:20.514Z,3.50
2018-06-12T10:28:49.019Z,3.45
2018-06-12T10:31:17.566Z,2.87
2018-06-12T10:33:46.038Z,3.55
2018-06-12T10:36:14.547Z,4.25
2018-06-12T10:38:43.059Z,3.70
2018-06-12T10:41:11.572Z,3.33
2018-06-12T10:43:40.049Z,3.05
2018-06-12T10:46:08.536Z,2.90
2018-06-12T10:48:36.991Z,2.98
2018-06-12T10:51:05.490Z,3.22
2018-06-12T10:53:33.958Z,2.95
2018-06-12T10:56:02.426Z,3.22
2018-06-12T10:58:30.870Z,2.65
2018-06-12T11:00:59.339Z,3.62
2018-06-12T11:03:27.799Z,3.10
2018-06-12T11:05:56.282Z,3.62
2018-06-12T11:08:24.738Z,3.30
2018-06-12T11:10:53.267Z,3.22
2018-06-12T11:13:21.668Z,3.02
2018-06-12T11:15:50.143Z,3.33
2018-06-12T11:18:18.582Z,3.33
2018-06-12T11:20:47.094Z,2.87
2018-06-12T11:23:15.605Z,2.67
2018-06-12T11:25:44.071Z,2.87
2018-06-12T11:28:12.523Z,2.58
2018-06-12T11:30:41.030Z,2.70
2018-06-12T11:33:09.571Z,3.30
2018-06-12T11:35:37.999Z,3.20
2018-06-12T11:38:06.499Z,3.20
2018-06-12T11:40:34.961Z,3.15
2018-06-12T11:43:03.700Z,2.95
2018-06-12T11:45:32.174Z,3.22
2018-06-12T11:48:00.626Z,2.50
2018-06-12T11:50:29.118Z,3.00
2018-06-12T11:52:57.567Z,3.08
2018-06-12T11:55:26.050Z,2.87
2018-06-12T11:57:54.497Z,3.52
2018-06-12T12:00:22.986Z,3.35
2018-06-12T12:02:51.439Z,3.20
2018-06-12T12:05:19.603Z,2.92
2018-06-12T12:07:48.066Z,3.10
2018-06-12T12:10:16.519Z,3.15
2018-06-12T12:12:44.999Z,2.60
2018-06-12T12:15:13.464Z,3.58
2018-06-12T12:17:41.922Z,3.30
2018-06-12T12:20:10.353Z,2.70
2018-06-12T12:22:38.810Z,3.40
2018-06-12T12:25:07.275Z,2.65
2018-06-12T12:27:35.798Z,3.10
2018-06-12T12:30:04.317Z,3.10
2018-06-12T12:32:32.807Z,3.30
2018-06-12T12:35:01.254Z,2.83
2018-06-12T12:37:29.723Z,3.10
2018-06-12T12:39:58.215Z,3.40
2018-06-12T12:42:26.677Z,3.42
2018-06-12T12:44:55.152Z,2.95
2018-06-12T12:47:23.629Z,3.30
2018-06-12T12:49:52.082Z,3.00
2018-06-12T12:52:20.722Z,2.83
2018-06-12T12:54:49.171Z,2.77
2018-06-12T12:57:17.638Z,3.52
2018-06-12T12:59:46.112Z,3.27
2018-06-12T13:02:14.591Z,4.03
2018-06-12T13:04:43.042Z,3.40
2018-06-12T13:07:11.975Z,3.15
2018-06-12T13:09:40.506Z,3.75
2018-06-12T13:12:08.986Z,5.05
2018-06-12T13:14:37.470Z,3.55
2018-06-12T13:17:05.645Z,3.52
2018-06-12T13:19:34.098Z,3.20
2018-06-12T13:22:02.582Z,3.02
2018-06-12T13:24:31.033Z,3.05
2018-06-12T13:26:59.735Z,2.98
2018-06-12T13:29:28.194Z,3.27
2018-06-12T13:31:56.674Z,3.85
2018-06-12T13:34:25.125Z,4.10
2018-06-12T13:36:53.624Z,4.65
2018-06-12T13:39:22.071Z,4.72
2018-06-12T13:41:50.530Z,4.80
2018-06-12T13:44:18.994Z,4.35
2018-06-12T13:46:48.338Z,5.17
2018-06-12T13:49:16.798Z,5.30
2018-06-12T13:51:45.298Z,5.22
2018-06-12T13:54:13.754Z,4.95
2018-06-12T13:56:42.275Z,5.20
2018-06-12T13:59:10.729Z,5.35
2018-06-12T14:01:39.214Z,5.28
2018-06-12T14:04:07.674Z,5.95
2018-06-12T14:06:36.126Z,5.83
2018-06-12T14:09:07.003Z,6.28
2018-06-12T14:11:35.471Z,5.67
2018-06-12T14:14:04.250Z,5.22
2018-06-12T14:16:32.706Z,5.35
2018-06-12T14:19:01.216Z,4.67
2018-06-12T14:21:29.900Z,4.60
2018-06-12T14:23:58.374Z,5.95
2018-06-12T14:26:26.823Z,5.33
2018-06-12T14:28:55.296Z,5.40
2018-06-12T14:31:23.758Z,5.17
2018-06-12T14:33:52.301Z,4.85
2018-06-12T14:36:20.819Z,5.00
2018-06-12T14:38:49.306Z,5.25
2018-06-12T14:41:17.780Z,5.30
2018-06-12T14:43:46.241Z,5.08
2018-06-12T14:46:15.312Z,5.37
2018-06-12T14:48:43.779Z,4.95
2018-06-12T14:51:12.239Z,5.42
2018-06-12T14:53:40.715Z,5.67
2018-06-12T14:56:09.170Z,5.55
2018-06-12T14:58:37.645Z,6.20
2018-06-12T15:01:06.215Z,5.53
2018-06-12T15:03:36.797Z,6.30
2018-06-12T15:06:05.794Z,5.75
2018-06-12T15:08:34.615Z,5.42
2018-06-12T15:11:14.334Z,5.22
2018-06-12T15:16:27.179Z,5.50
2018-06-12T15:24:42.745Z,6.30
2018-06-12T15:27:16.442Z,6.85
2018-06-12T15:29:45.188Z,6.10
2018-06-12T15:32:13.823Z,6.17
2018-06-12T15:34:43.832Z,7.37
2018-06-12T15:37:12.298Z,6.80
2018-06-12T15:39:40.784Z,6.83
2018-06-12T15:42:09.617Z,6.30
2018-06-12T15:44:40.067Z,6.85
2018-06-12T15:47:08.516Z,6.92
2018-06-12T15:49:37.277Z,7.37
2018-06-12T15:52:05.981Z,7.28
2018-06-12T15:54:34.455Z,7.60
2018-06-12T15:57:02.947Z,7.37
2018-06-12T15:59:31.436Z,8.10
2018-06-12T16:01:59.911Z,7.45
2018-06-12T16:04:28.400Z,8.80
2018-06-12T16:06:57.529Z,7.65
2018-06-12T16:09:26.023Z,7.65
2018-06-12T16:11:54.607Z,8.28
2018-06-12T16:14:23.562Z,7.15
2018-06-12T16:16:52.251Z,7.83
2018-06-12T16:19:20.899Z,7.90
2018-06-12T16:21:49.955Z,8.23
2018-06-12T16:24:18.668Z,7.95
2018-06-12T16:26:50.042Z,7.67
2018-06-12T16:29:18.821Z,7.50
2018-06-12T16:31:47.350Z,8.20
2018-06-12T16:34:16.262Z,7.75
2018-06-12T16:36:44.806Z,7.55
2018-06-12T16:39:13.750Z,8.80
2018-06-12T16:41:42.595Z,10.18
2018-06-12T16:44:11.095Z,8.00
2018-06-12T16:46:39.824Z,9.15
2018-06-12T16:49:08.310Z,8.80
2018-06-12T16:51:36.803Z,9.13
2018-06-12T16:54:05.354Z,8.78
2018-06-12T16:56:35.929Z,8.83
2018-06-12T16:59:04.491Z,9.08
2018-06-12T17:01:32.977Z,8.88
2018-06-12T17:04:01.501Z,7.90
2018-06-12T17:06:30.011Z,9.15
2018-06-12T17:08:58.638Z,8.80
2018-06-12T17:11:27.367Z,8.68
2018-06-12T17:13:55.903Z,8.28
2018-06-12T17:16:24.479Z,8.45
2018-06-12T17:18:52.962Z,8.95
2018-06-12T17:21:21.459Z,8.80
2018-06-12T17:23:49.981Z,8.28
2018-06-12T17:26:18.488Z,8.43
2018-06-12T17:28:46.990Z,8.85
2018-06-12T17:31:15.491Z,8.58
2018-06-12T17:33:43.984Z,9.18
2018-06-12T17:36:12.487Z,9.43
2018-06-12T17:38:40.993Z,10.88
2018-06-12T17:41:09.506Z,10.53
2018-06-12T17:43:38.008Z,11.00
2018-06-12T17:46:06.527Z,10.45
2018-06-12T17:48:35.008Z,11.08
2018-06-12T17:51:03.587Z,12.05
2018-06-12T17:53:32.140Z,12.25
2018-06-12T17:56:00.658Z,12.82
2018-06-12T17:58:29.232Z,12.18
2018-06-12T18:00:58.467Z,11.78
2018-06-12T18:03:33.752Z,12.10
2018-06-12T18:06:02.379Z,12.75
2018-06-12T18:08:30.793Z,13.58
2018-06-12T18:10:59.282Z,13.10
2018-06-12T18:13:31.071Z,13.38
2018-06-12T18:15:59.755Z,14.95
2018-06-12T18:18:28.803Z,13.98
2018-06-12T18:20:58.953Z,14.35
2018-06-12T18:23:27.750Z,16.05
2018-06-12T18:25:56.250Z,15.55
2018-06-12T18:28:26.482Z,19.12
2018-06-12T18:30:54.966Z,15.50
2018-06-12T18:33:23.457Z,14.53
2018-06-12T18:35:51.959Z,15.45
2018-06-12T18:38:20.443Z,14.60
2018-06-12T18:40:48.938Z,14.38
2018-06-12T18:43:17.406Z,14.07
2018-06-12T18:45:45.904Z,14.30
2018-06-12T18:48:14.376Z,16.17
2018-06-12T18:50:42.886Z,14.47
2018-06-12T18:53:11.372Z,15.15
2018-06-12T18:55:42.286Z,14.33
2018-06-12T18:58:10.789Z,14.87
2018-06-12T19:00:39.283Z,14.80
2018-06-12T19:03:07.753Z,15.80
2018-06-12T19:05:36.291Z,15.45
2018-06-12T19:08:05.159Z,15.75
2018-06-12T19:10:33.650Z,15.60
2018-06-12T19:13:02.277Z,15.70
2018-06-12T19:15:30.771Z,15.65
2018-06-12T19:18:00.915Z,16.02
2018-06-12T19:20:29.594Z,16.85
2018-06-12T19:22:58.042Z,18.90
2018-06-12T19:25:26.499Z,40.48
2018-06-12T19:27:55.950Z,17.98
2018-06-12T19:30:24.410Z,17.27
2018-06-12T19:32:52.904Z,18.52
2018-06-12T19:35:21.407Z,19.20
2018-06-12T19:37:49.890Z,19.30
2018-06-12T19:40:18.358Z,19.12
2018-06-12T19:42:47.069Z,20.00
2018-06-12T19:45:15.523Z,19.82
2018-06-12T19:47:44.044Z,18.17
2018-06-12T19:50:12.550Z,20.40
2018-06-12T19:52:41.018Z,20.27
2018-06-12T19:55:09.800Z,20.72
2018-06-12T19:57:38.297Z,20.62
2018-06-12T20:00:06.804Z,20.97
2018-06-12T20:02:35.277Z,21.07
2018-06-12T20:05:03.806Z,19.65
2018-06-12T20:07:32.733Z,21.10
2018-06-12T20:10:01.207Z,22.27
2018-06-12T20:12:29.677Z,21.45
2018-06-12T20:14:58.130Z,23.05
2018-06-12T20:17:26.601Z,23.40
2018-06-12T20:19:56.095Z,22.55
2018-06-12T20:22:24.858Z,21.90
2018-06-12T20:24:53.626Z,22.50
2018-06-12T20:27:22.078Z,23.47
2018-06-12T20:29:50.534Z,22.75
2018-06-12T20:32:19.047Z,21.75
2018-06-12T20:34:47.495Z,22.80
2018-06-12T20:37:15.962Z,23.85
2018-06-12T20:39:46.318Z,22.15
2018-06-12T20:42:14.785Z,21.65
2018-06-12T20:44:43.254Z,21.95
2018-06-12T20:47:11.722Z,21.85
2018-06-12T20:49:40.159Z,22.60
2018-06-12T20:52:08.910Z,23.15
2018-06-12T20:54:38.622Z,23.80
2018-06-12T20:57:07.196Z,22.67
2018-06-12T20:59:35.674Z,24.85
2018-06-12T21:02:20.487Z,23.62
2018-06-12T21:04:48.988Z,24.18
2018-06-12T21:07:17.634Z,23.98
2018-06-12T21:09:45.974Z,24.18
2018-06-12T21:12:14.441Z,24.02
2018-06-12T21:14:42.890Z,23.42
2018-06-12T21:17:11.362Z,23.70
2018-06-12T21:19:39.805Z,24.27
2018-06-12T21:22:08.284Z,23.73
2018-06-12T21:24:36.970Z,23.90
2018-06-12T21:27:05.480Z,24.72
2018-06-12T21:29:33.948Z,25.62
2018-06-12T21:32:02.627Z,24.63
2018-06-12T21:34:31.098Z,23.80
2018-06-12T21:36:59.567Z,23.67
2018-06-12T21:39:28.058Z,22.52
2018-06-12T21:41:57.563Z,22.77
2018-06-12T21:44:26.320Z,22.67
2018-06-12T21:46:54.778Z,23.00
2018-06-12T21:49:23.251Z,21.65
2018-06-12T21:51:51.719Z,22.10
2018-06-12T21:54:20.194Z,22.67
2018-06-12T21:56:48.815Z,23.15
2018-06-12T21:59:17.291Z,22.52
2018-06-12T22:01:45.771Z,22.90
2018-06-12T22:04:14.283Z,22.48
2018-06-12T22:06:42.770Z,23.27
2018-06-12T22:09:11.245Z,23.45
2018-06-12T22:11:39.698Z,23.02
2018-06-12T22:14:08.409Z,22.35
2018-06-12T22:16:36.874Z,22.73
2018-06-12T22:19:05.426Z,22.87
2018-06-12T22:21:33.881Z,23.60
2018-06-12T22:24:02.354Z,24.12
2018-06-12T22:26:30.836Z,23.00
2018-06-12T22:28:59.331Z,23.18
2018-06-12T22:31:27.798Z,24.52
2018-06-12T22:33:56.283Z,21.68
2018-06-12T22:36:24.769Z,24.18
2018-06-12T22:38:53.233Z,22.35
2018-06-12T22:41:21.694Z,21.50
2018-06-12T22:43:50.166Z,22.10
2018-06-12T22:46:18.629Z,23.25
2018-06-12T22:48:47.103Z,22.05
2018-06-12T22:51:15.600Z,21.52
2018-06-12T22:53:44.092Z,22.22
2018-06-12T22:56:12.542Z,21.25
2018-06-12T22:58:41.022Z,21.15
2018-06-12T23:01:09.483Z,22.70
2018-06-12T23:03:37.950Z,21.45
2018-06-12T23:06:06.402Z,19.10
2018-06-12T23:08:34.859Z,19.30
2018-06-12T23:11:03.309Z,17.85
2018-06-12T23:13:31.764Z,17.48
2018-06-12T23:16:00.451Z,18.45
2018-06-12T23:18:28.916Z,18.45
2018-06-12T23:21:08.549Z,18.10
2018-06-12T23:23:37.015Z,18.92
2018-06-12T23:26:05.471Z,19.82
2018-06-12T23:28:33.944Z,19.82
2018-06-12T23:31:02.428Z,20.23
2018-06-12T23:33:30.867Z,22.67
2018-06-12T23:35:59.320Z,22.60
2018-06-12T23:38:27.776Z,24.70
2018-06-12T23:40:56.232Z,24.37
2018-06-12T23:43:24.684Z,24.85
2018-06-12T23:45:53.135Z,26.95
2018-06-12T23:48:21.568Z,26.50
2018-06-12T23:50:50.317Z,27.00
2018-06-12T23:53:18.771Z,23.32
2018-06-12T23:55:47.244Z,25.97
2018-06-12T23:58:15.696Z,26.57
